sensor_id;sensor_type;location;lat;lon;timestamp;pressure;altitude;pressure_sealevel;temperature
18474;BMP180;30265;52.408;13.500;2022-12-07T00:01:09;101062.00;;;2.70
18474;BMP180;30265;52.408;13.500;2022-12-07T00:11:34;101049.00;;;2.50
18474;BMP180;30265;52.408;13.500;2022-12-07T00:21:55;101051.00;;;2.50
18474;BMP180;30265;52.408;13.500;2022-12-07T00:32:18;101051.00;;;2.50
18474;BMP180;30265;52.408;13.500;2022-12-07T00:42:40;101037.00;;;2.40
18474;BMP180;30265;52.408;13.500;2022-12-07T00:53:03;101027.00;;;2.20
18474;BMP180;30265;52.408;13.500;2022-12-07T01:03:24;101014.00;;;1.90
18474;BMP180;30265;52.408;13.500;2022-12-07T01:13:49;101020.00;;;1.90
18474;BMP180;30265;52.408;13.500;2022-12-07T01:24:11;101019.00;;;1.80
18474;BMP180;30265;52.408;13.500;2022-12-07T01:34:34;101000.00;;;1.80
18474;BMP180;30265;52.408;13.500;2022-12-07T01:56:00;100986.00;;;1.70
18474;BMP180;30265;52.408;13.500;2022-12-07T02:06:24;100976.00;;;1.70
18474;BMP180;30265;52.408;13.500;2022-12-07T02:16:56;100960.00;;;1.60
18474;BMP180;30265;52.408;13.500;2022-12-07T02:27:33;100967.00;;;1.40
18474;BMP180;30265;52.408;13.500;2022-12-07T02:38:02;100952.00;;;1.30
18474;BMP180;30265;52.408;13.500;2022-12-07T02:48:26;100948.00;;;1.20
18474;BMP180;30265;52.408;13.500;2022-12-07T02:59:00;100943.00;;;1.10
18474;BMP180;30265;52.408;13.500;2022-12-07T03:09:28;100910.00;;;1.00
18474;BMP180;30265;52.408;13.500;2022-12-07T03:19:58;100911.00;;;1.00
18474;BMP180;30265;52.408;13.500;2022-12-07T03:30:23;100892.00;;;1.10
18474;BMP180;30265;52.408;13.500;2022-12-07T03:40:49;100862.00;;;1.10
18474;BMP180;30265;52.408;13.500;2022-12-07T03:51:17;100845.00;;;1.20
18474;BMP180;30265;52.408;13.500;2022-12-07T04:01:41;100836.00;;;1.30
18474;BMP180;30265;52.408;13.500;2022-12-07T04:12:03;100809.00;;;1.30
18474;BMP180;30265;52.408;13.500;2022-12-07T04:22:26;100806.00;;;1.30
18474;BMP180;30265;52.408;13.500;2022-12-07T04:32:48;100800.00;;;1.20
18474;BMP180;30265;52.408;13.500;2022-12-07T04:43:11;100778.00;;;1.10
18474;BMP180;30265;52.408;13.500;2022-12-07T04:53:33;100769.00;;;1.20
18474;BMP180;30265;52.408;13.500;2022-12-07T05:03:56;100762.00;;;1.30
18474;BMP180;30265;52.408;13.500;2022-12-07T05:14:19;100751.00;;;1.50
18474;BMP180;30265;52.408;13.500;2022-12-07T05:24:42;100753.00;;;1.70
18474;BMP180;30265;52.408;13.500;2022-12-07T05:35:04;100748.00;;;1.80
18474;BMP180;30265;52.408;13.500;2022-12-07T05:45:27;100733.00;;;1.80
18474;BMP180;30265;52.408;13.500;2022-12-07T05:55:49;100732.00;;;1.90
18474;BMP180;30265;52.408;13.500;2022-12-07T06:06:11;100735.00;;;2.00
18474;BMP180;30265;52.408;13.500;2022-12-07T06:16:33;100709.00;;;2.10
18474;BMP180;30265;52.408;13.500;2022-12-07T06:26:56;100688.00;;;2.20
18474;BMP180;30265;52.408;13.500;2022-12-07T06:37:18;100689.00;;;2.30
18474;BMP180;30265;52.408;13.500;2022-12-07T06:47:41;100686.00;;;2.40
18474;BMP180;30265;52.408;13.500;2022-12-07T06:58:05;100694.00;;;2.40
18474;BMP180;30265;52.408;13.500;2022-12-07T07:08:28;100681.00;;;2.60
18474;BMP180;30265;52.408;13.500;2022-12-07T07:18:50;100686.00;;;2.80
18474;BMP180;30265;52.408;13.500;2022-12-07T07:29:13;100689.00;;;2.90
18474;BMP180;30265;52.408;13.500;2022-12-07T07:39:35;100684.00;;;3.30
18474;BMP180;30265;52.408;13.500;2022-12-07T07:49:58;100681.00;;;3.30
18474;BMP180;30265;52.408;13.500;2022-12-07T08:00:21;100679.00;;;3.40
18474;BMP180;30265;52.408;13.500;2022-12-07T08:10:44;100678.00;;;3.50
18474;BMP180;30265;52.408;13.500;2022-12-07T08:21:07;100696.00;;;3.70
18474;BMP180;30265;52.408;13.500;2022-12-07T08:31:30;100692.00;;;3.70
18474;BMP180;30265;52.408;13.500;2022-12-07T08:41:52;100706.00;;;3.90
18474;BMP180;30265;52.408;13.500;2022-12-07T08:52:15;100708.00;;;3.90
18474;BMP180;30265;52.408;13.500;2022-12-07T09:02:37;100729.00;;;3.80
18474;BMP180;30265;52.408;13.500;2022-12-07T09:13:00;100732.00;;;3.80
18474;BMP180;30265;52.408;13.500;2022-12-07T09:23:22;100754.00;;;3.80
18474;BMP180;30265;52.408;13.500;2022-12-07T09:33:45;100734.00;;;3.80
18474;BMP180;30265;52.408;13.500;2022-12-07T09:44:09;100747.00;;;3.80
18474;BMP180;30265;52.408;13.500;2022-12-07T09:54:35;100738.00;;;3.70
18474;BMP180;30265;52.408;13.500;2022-12-07T10:04:58;100765.00;;;3.60
18474;BMP180;30265;52.408;13.500;2022-12-07T10:15:23;100773.00;;;3.60
18474;BMP180;30265;52.408;13.500;2022-12-07T10:25:45;100765.00;;;3.60
18474;BMP180;30265;52.408;13.500;2022-12-07T10:36:22;100761.00;;;3.50
18474;BMP180;30265;52.408;13.500;2022-12-07T10:47:14;100766.00;;;3.50
18474;BMP180;30265;52.408;13.500;2022-12-07T10:57:47;100761.00;;;3.60
18474;BMP180;30265;52.408;13.500;2022-12-07T11:08:18;100756.00;;;3.70
18474;BMP180;30265;52.408;13.500;2022-12-07T11:18:51;100747.00;;;3.80
18474;BMP180;30265;52.408;13.500;2022-12-07T11:29:34;100738.00;;;4.10
18474;BMP180;30265;52.408;13.500;2022-12-07T11:40:02;100722.00;;;4.00
18474;BMP180;30265;52.408;13.500;2022-12-07T11:50:27;100734.00;;;4.10
18474;BMP180;30265;52.408;13.500;2022-12-07T12:01:06;100734.00;;;4.00
18474;BMP180;30265;52.408;13.500;2022-12-07T12:11:41;100711.00;;;4.10
18474;BMP180;30265;52.408;13.500;2022-12-07T12:22:12;100717.00;;;4.20
18474;BMP180;30265;52.408;13.500;2022-12-07T12:32:39;100718.00;;;4.20
18474;BMP180;30265;52.408;13.500;2022-12-07T12:43:02;100702.00;;;4.40
18474;BMP180;30265;52.408;13.500;2022-12-07T12:53:44;100708.00;;;4.30
18474;BMP180;30265;52.408;13.500;2022-12-07T13:14:58;100705.00;;;4.50
18474;BMP180;30265;52.408;13.500;2022-12-07T13:25:29;100698.00;;;4.60
18474;BMP180;30265;52.408;13.500;2022-12-07T13:35:54;100687.00;;;4.60
18474;BMP180;30265;52.408;13.500;2022-12-07T13:46:20;100686.00;;;4.50
18474;BMP180;30265;52.408;13.500;2022-12-07T13:56:48;100684.00;;;4.40
18474;BMP180;30265;52.408;13.500;2022-12-07T14:07:23;100701.00;;;4.30
18474;BMP180;30265;52.408;13.500;2022-12-07T14:17:50;100707.00;;;4.30
18474;BMP180;30265;52.408;13.500;2022-12-07T14:28:27;100711.00;;;4.40
18474;BMP180;30265;52.408;13.500;2022-12-07T14:38:48;100709.00;;;4.30
18474;BMP180;30265;52.408;13.500;2022-12-07T14:49:15;100690.00;;;4.30
18474;BMP180;30265;52.408;13.500;2022-12-07T14:59:51;100682.00;;;4.10
18474;BMP180;30265;52.408;13.500;2022-12-07T15:10:19;100698.00;;;3.90
18474;BMP180;30265;52.408;13.500;2022-12-07T15:20:43;100684.00;;;3.60
18474;BMP180;30265;52.408;13.500;2022-12-07T15:31:11;100685.00;;;3.40
18474;BMP180;30265;52.408;13.500;2022-12-07T15:41:53;100696.00;;;3.30
18474;BMP180;30265;52.408;13.500;2022-12-07T15:52:16;100697.00;;;3.30
18474;BMP180;30265;52.408;13.500;2022-12-07T16:02:38;100694.00;;;3.30
18474;BMP180;30265;52.408;13.500;2022-12-07T16:13:01;100691.00;;;3.10
18474;BMP180;30265;52.408;13.500;2022-12-07T16:23:23;100691.00;;;3.00
18474;BMP180;30265;52.408;13.500;2022-12-07T16:33:46;100686.00;;;3.00
18474;BMP180;30265;52.408;13.500;2022-12-07T16:44:11;100699.00;;;2.90
18474;BMP180;30265;52.408;13.500;2022-12-07T16:54:35;100696.00;;;2.90
18474;BMP180;30265;52.408;13.500;2022-12-07T17:04:57;100698.00;;;2.80
18474;BMP180;30265;52.408;13.500;2022-12-07T17:15:20;100708.00;;;2.70
18474;BMP180;30265;52.408;13.500;2022-12-07T17:25:42;100703.00;;;2.60
18474;BMP180;30265;52.408;13.500;2022-12-07T17:36:11;100710.00;;;2.70
18474;BMP180;30265;52.408;13.500;2022-12-07T17:46:33;100698.00;;;2.60
18474;BMP180;30265;52.408;13.500;2022-12-07T17:56:57;100709.00;;;2.40
18474;BMP180;30265;52.408;13.500;2022-12-07T18:07:18;100712.00;;;2.30
18474;BMP180;30265;52.408;13.500;2022-12-07T18:17:41;100715.00;;;2.00
18474;BMP180;30265;52.408;13.500;2022-12-07T18:28:03;100702.00;;;1.90
18474;BMP180;30265;52.408;13.500;2022-12-07T18:38:26;100715.00;;;1.70
18474;BMP180;30265;52.408;13.500;2022-12-07T18:48:48;100715.00;;;1.70
18474;BMP180;30265;52.408;13.500;2022-12-07T18:59:12;100717.00;;;1.60
18474;BMP180;30265;52.408;13.500;2022-12-07T19:09:52;100728.00;;;1.60
18474;BMP180;30265;52.408;13.500;2022-12-07T19:20:15;100718.00;;;1.60
18474;BMP180;30265;52.408;13.500;2022-12-07T19:30:36;100725.00;;;1.60
18474;BMP180;30265;52.408;13.500;2022-12-07T19:41:04;100726.00;;;1.40
18474;BMP180;30265;52.408;13.500;2022-12-07T19:51:32;100729.00;;;1.40
18474;BMP180;30265;52.408;13.500;2022-12-07T20:02:01;100720.00;;;1.20
18474;BMP180;30265;52.408;13.500;2022-12-07T20:12:24;100716.00;;;1.20
18474;BMP180;30265;52.408;13.500;2022-12-07T20:23:04;100717.00;;;0.90
18474;BMP180;30265;52.408;13.500;2022-12-07T20:33:25;100704.00;;;0.80
18474;BMP180;30265;52.408;13.500;2022-12-07T20:43:52;100729.00;;;0.80
18474;BMP180;30265;52.408;13.500;2022-12-07T20:54:14;100709.00;;;0.60
18474;BMP180;30265;52.408;13.500;2022-12-07T21:04:37;100732.00;;;0.60
18474;BMP180;30265;52.408;13.500;2022-12-07T21:14:59;100732.00;;;0.50
18474;BMP180;30265;52.408;13.500;2022-12-07T21:25:22;100747.00;;;0.30
18474;BMP180;30265;52.408;13.500;2022-12-07T21:35:46;100746.00;;;0.20
18474;BMP180;30265;52.408;13.500;2022-12-07T21:46:09;100737.00;;;0.40
18474;BMP180;30265;52.408;13.500;2022-12-07T21:56:32;100730.00;;;0.50
18474;BMP180;30265;52.408;13.500;2022-12-07T22:06:55;100732.00;;;0.70
18474;BMP180;30265;52.408;13.500;2022-12-07T22:17:18;100734.00;;;0.70
18474;BMP180;30265;52.408;13.500;2022-12-07T22:27:41;100734.00;;;0.60
18474;BMP180;30265;52.408;13.500;2022-12-07T22:38:06;100746.00;;;0.80
18474;BMP180;30265;52.408;13.500;2022-12-07T22:48:35;100727.00;;;0.60
18474;BMP180;30265;52.408;13.500;2022-12-07T22:58:57;100715.00;;;0.50
18474;BMP180;30265;52.408;13.500;2022-12-07T23:09:21;100708.00;;;0.50
18474;BMP180;30265;52.408;13.500;2022-12-07T23:19:42;100709.00;;;0.30
18474;BMP180;30265;52.408;13.500;2022-12-07T23:30:07;100721.00;;;0.30
18474;BMP180;30265;52.408;13.500;2022-12-07T23:40:29;100705.00;;;0.30
18474;BMP180;30265;52.408;13.500;2022-12-07T23:50:55;100694.00;;;0.30
